createdAt,value
2018-07-07T06:26:11.044Z,21.713867
2018-07-07T06:26:28.251Z,21.74408
2018-07-07T06:26:45.725Z,21.794434
2018-07-07T06:27:02.973Z,21.804504
2018-07-07T06:27:20.264Z,21.834717
2018-07-07T06:27:37.163Z,21.875
2018-07-07T06:27:54.256Z,21.875
2018-07-07T06:28:20.437Z,21.915283
2018-07-07T06:28:48.405Z,21.975708
2018-07-07T06:29:05.544Z,22.015991
2018-07-07T06:29:23.086Z,22.026062
2018-07-07T06:29:40.746Z,22.056274
2018-07-07T06:29:58.006Z,22.096558
2018-07-07T06:30:15.385Z,22.146912
2018-07-07T06:30:32.791Z,22.146912
2018-07-07T06:30:49.754Z,22.207336
2018-07-07T06:31:07.072Z,22.207336
2018-07-07T06:31:24.029Z,22.237549
2018-07-07T06:31:51.966Z,22.24762
2018-07-07T06:32:19.408Z,22.267761
2018-07-07T06:32:36.090Z,22.267761
2018-07-07T06:32:52.777Z,22.267761
2018-07-07T06:33:09.485Z,22.277832
2018-07-07T06:33:26.159Z,22.297974
2018-07-07T06:33:42.949Z,22.277832
2018-07-07T06:33:59.614Z,22.297974
2018-07-07T06:34:16.969Z,22.277832
2018-07-07T06:34:34.075Z,22.308044
2018-07-07T06:34:50.766Z,22.308044
2018-07-07T06:35:07.582Z,22.297974
2018-07-07T06:35:24.674Z,22.308044
2018-07-07T06:35:49.088Z,22.308044
2018-07-07T06:36:17.422Z,22.277832
2018-07-07T06:36:41.896Z,22.267761
2018-07-07T06:37:42.120Z,22.237549
2018-07-07T06:37:58.744Z,22.24762
2018-07-07T06:38:15.329Z,22.237549
2018-07-07T06:38:45.078Z,22.237549
2018-07-07T06:39:17.551Z,22.237549
2018-07-07T06:39:34.980Z,22.24762
2018-07-07T06:39:52.202Z,22.277832
2018-07-07T06:40:09.449Z,22.277832
2018-07-07T06:40:26.894Z,22.297974
2018-07-07T06:40:45.100Z,22.308044
2018-07-07T06:41:02.137Z,22.297974
2018-07-07T06:41:18.853Z,22.308044
2018-07-07T06:41:35.921Z,22.328186
2018-07-07T06:41:53.008Z,22.328186
2018-07-07T06:42:10.073Z,22.328186
2018-07-07T06:42:27.698Z,22.358398
2018-07-07T06:42:44.528Z,22.368469
2018-07-07T06:43:14.114Z,22.388611
2018-07-07T06:44:15.662Z,22.418823
2018-07-07T06:44:40.742Z,22.428894
2018-07-07T06:45:17.787Z,22.469177
2018-07-07T06:45:35.069Z,22.489319
2018-07-07T06:45:52.425Z,22.50946
2018-07-07T06:46:18.152Z,22.519531
2018-07-07T06:46:48.979Z,22.549744
2018-07-07T06:47:05.742Z,22.569885
2018-07-07T06:47:22.444Z,22.610168
2018-07-07T06:47:39.397Z,22.640381
2018-07-07T06:47:56.220Z,22.610168
2018-07-07T06:48:29.688Z,22.680664
2018-07-07T06:49:14.703Z,22.76123
2018-07-07T06:49:31.704Z,22.771301
2018-07-07T06:49:49.346Z,22.821655
2018-07-07T06:50:11.830Z,22.831726
2018-07-07T06:50:46.569Z,22.922363
2018-07-07T06:51:03.295Z,22.952576
2018-07-07T06:51:20.123Z,23.00293
2018-07-07T06:51:36.982Z,23.023071
2018-07-07T06:51:53.866Z,23.023071
2018-07-07T06:52:10.614Z,23.043213
2018-07-07T06:52:27.355Z,23.093567
2018-07-07T06:53:13.056Z,23.123779
2018-07-07T06:53:37.339Z,23.123779
2018-07-07T06:54:20.036Z,23.153992
2018-07-07T06:54:37.514Z,23.153992
2018-07-07T06:54:54.902Z,23.153992
2018-07-07T06:55:12.252Z,23.164062
2018-07-07T06:55:29.796Z,23.153992
2018-07-07T06:56:43.956Z,23.204346
2018-07-07T06:57:01.984Z,23.194275
2018-07-07T06:57:19.889Z,23.224487
2018-07-07T06:57:37.303Z,23.204346
2018-07-07T06:57:54.754Z,23.224487
2018-07-07T06:58:23.866Z,23.2547
2018-07-07T06:58:47.657Z,23.194275
2018-07-07T06:59:04.582Z,23.204346
2018-07-07T06:59:22.070Z,23.204346
2018-07-07T06:59:39.453Z,23.224487
2018-07-07T06:59:56.285Z,23.204346
2018-07-07T07:00:13.485Z,23.224487
2018-07-07T07:00:37.010Z,23.204346
2018-07-07T07:01:16.589Z,23.224487
2018-07-07T07:01:38.659Z,23.204346
2018-07-07T07:02:16.145Z,23.204346
2018-07-07T07:02:41.751Z,23.204346
2018-07-07T07:03:16.712Z,23.194275
2018-07-07T07:03:40.444Z,23.174133
2018-07-07T07:04:43.265Z,23.204346
2018-07-07T07:04:59.933Z,23.204346
2018-07-07T07:05:17.530Z,23.204346
2018-07-07T07:05:47.148Z,23.174133
2018-07-07T07:06:47.191Z,23.123779
2018-07-07T07:07:13.010Z,23.103638
2018-07-07T07:07:48.443Z,23.073425
2018-07-07T07:08:05.893Z,23.043213
2018-07-07T07:08:22.711Z,23.023071
2018-07-07T07:08:39.461Z,23.00293
2018-07-07T07:08:56.283Z,23.013
2018-07-07T07:09:13.075Z,22.972717
2018-07-07T07:09:29.974Z,22.942505
2018-07-07T07:09:46.756Z,22.922363
2018-07-07T07:10:03.670Z,22.922363
2018-07-07T07:10:21.074Z,22.861938
2018-07-07T07:10:38.897Z,22.851868
2018-07-07T07:10:56.671Z,22.801514
2018-07-07T07:11:13.304Z,22.791443
2018-07-07T07:11:31.253Z,22.771301
2018-07-07T07:11:49.923Z,22.76123
2018-07-07T07:12:07.089Z,22.75116
2018-07-07T07:12:23.790Z,22.731018
2018-07-07T07:12:40.749Z,22.720947
2018-07-07T07:12:58.121Z,22.731018
2018-07-07T07:13:15.298Z,22.700806
2018-07-07T07:13:32.160Z,22.670593
2018-07-07T07:13:48.965Z,22.680664
2018-07-07T07:14:05.918Z,22.680664
2018-07-07T07:14:23.554Z,22.650452
2018-07-07T07:14:41.505Z,22.670593
2018-07-07T07:14:58.964Z,22.640381
2018-07-07T07:15:17.513Z,22.640381
2018-07-07T07:15:38.571Z,22.610168
2018-07-07T07:15:55.419Z,22.620239
2018-07-07T07:16:12.134Z,22.600098
2018-07-07T07:16:28.886Z,22.600098
2018-07-07T07:17:31.773Z,22.579956
2018-07-07T07:17:48.557Z,22.569885
2018-07-07T07:18:05.358Z,22.600098
2018-07-07T07:18:22.154Z,22.579956
2018-07-07T07:18:39.231Z,22.569885
2018-07-07T07:18:57.580Z,22.569885
2018-07-07T07:19:15.295Z,22.549744
2018-07-07T07:19:34.103Z,22.549744
2018-07-07T07:19:50.905Z,22.539673
2018-07-07T07:20:08.385Z,22.549744
2018-07-07T07:20:26.339Z,22.539673
2018-07-07T07:21:01.508Z,22.519531
2018-07-07T07:21:19.260Z,22.489319
2018-07-07T07:21:37.012Z,22.469177
2018-07-07T07:21:54.749Z,22.469177
2018-07-07T07:22:12.110Z,22.459106
2018-07-07T07:22:28.903Z,22.459106
2018-07-07T07:23:12.343Z,22.418823
2018-07-07T07:23:29.196Z,22.428894
2018-07-07T07:23:46.033Z,22.428894
2018-07-07T07:24:03.868Z,22.428894
2018-07-07T07:24:21.607Z,22.428894
2018-07-07T07:24:39.343Z,22.418823
2018-07-07T07:24:56.597Z,22.418823
2018-07-07T07:25:14.107Z,22.418823
2018-07-07T07:25:31.583Z,22.398682
2018-07-07T07:25:49.436Z,22.388611
2018-07-07T07:26:07.390Z,22.398682
2018-07-07T07:26:24.603Z,22.368469
2018-07-07T07:26:42.006Z,22.358398
2018-07-07T07:26:58.844Z,22.368469
2018-07-07T07:27:15.521Z,22.368469
2018-07-07T07:27:32.368Z,22.358398
2018-07-07T07:27:49.145Z,22.358398
2018-07-07T07:28:06.000Z,22.358398
2018-07-07T07:28:22.764Z,22.348328
2018-07-07T07:28:39.781Z,22.348328
2018-07-07T07:28:57.798Z,22.348328
2018-07-07T07:29:15.144Z,22.348328
2018-07-07T07:29:32.597Z,22.358398
2018-07-07T07:29:49.334Z,22.308044
2018-07-07T07:30:20.852Z,22.308044
2018-07-07T07:31:34.912Z,22.348328
2018-07-07T07:31:52.573Z,22.348328
2018-07-07T07:32:09.994Z,22.358398
2018-07-07T07:32:27.692Z,22.368469
2018-07-07T07:33:12.093Z,22.388611
2018-07-07T07:33:28.977Z,22.428894
2018-07-07T07:34:31.062Z,22.459106
2018-07-07T07:34:47.771Z,22.459106
2018-07-07T07:35:04.776Z,22.469177
2018-07-07T07:35:22.859Z,22.50946
2018-07-07T07:35:40.821Z,22.519531
2018-07-07T07:35:58.411Z,22.519531
2018-07-07T07:36:16.072Z,22.519531
2018-07-07T07:36:33.309Z,22.539673
2018-07-07T07:36:50.186Z,22.569885
2018-07-07T07:37:07.178Z,22.569885
2018-07-07T07:37:24.854Z,22.549744
2018-07-07T07:37:42.531Z,22.549744
2018-07-07T07:38:00.200Z,22.569885
2018-07-07T07:38:18.268Z,22.569885
2018-07-07T07:38:35.979Z,22.549744
2018-07-07T07:38:53.944Z,22.549744
2018-07-07T07:39:11.237Z,22.579956
2018-07-07T07:39:28.068Z,22.569885
2018-07-07T07:39:44.871Z,22.569885
2018-07-07T07:40:01.936Z,22.539673
2018-07-07T07:40:19.962Z,22.549744
2018-07-07T07:40:37.351Z,22.539673
2018-07-07T07:40:54.838Z,22.539673
2018-07-07T07:41:12.701Z,22.519531
2018-07-07T07:41:30.325Z,22.519531
2018-07-07T07:42:13.996Z,22.519531
2018-07-07T07:42:32.355Z,22.50946
2018-07-07T07:42:49.933Z,22.539673
2018-07-07T07:43:07.539Z,22.539673
2018-07-07T07:43:24.423Z,22.519531
2018-07-07T07:43:41.378Z,22.50946
2018-07-07T07:43:58.858Z,22.549744
2018-07-07T07:44:42.411Z,22.539673
2018-07-07T07:44:59.167Z,22.549744
2018-07-07T07:45:16.782Z,22.549744
2018-07-07T07:45:39.028Z,22.549744
2018-07-07T07:46:14.108Z,22.569885
2018-07-07T07:46:34.624Z,22.569885
2018-07-07T07:47:40.931Z,22.579956
2018-07-07T07:47:59.097Z,22.579956
2018-07-07T07:49:00.763Z,22.600098
2018-07-07T07:49:26.552Z,22.610168
2018-07-07T07:49:45.116Z,22.620239
2018-07-07T07:50:02.775Z,22.610168
2018-07-07T07:50:20.357Z,22.620239
2018-07-07T07:50:38.308Z,22.610168
2018-07-07T07:50:56.022Z,22.600098
2018-07-07T07:51:13.404Z,22.600098
2018-07-07T07:51:31.167Z,22.579956
2018-07-07T07:51:51.110Z,22.600098
2018-07-07T07:52:11.775Z,22.610168
2018-07-07T07:52:28.626Z,22.579956
2018-07-07T07:52:45.738Z,22.579956
2018-07-07T07:53:03.175Z,22.579956
2018-07-07T07:53:20.800Z,22.579956
2018-07-07T07:53:45.449Z,22.600098
2018-07-07T07:54:17.023Z,22.600098
2018-07-07T07:54:34.809Z,22.600098
2018-07-07T07:54:52.396Z,22.579956
2018-07-07T07:55:10.088Z,22.600098
2018-07-07T07:55:31.385Z,22.569885
2018-07-07T07:55:49.791Z,22.569885
2018-07-07T07:56:07.627Z,22.579956
2018-07-07T07:56:28.547Z,22.569885
2018-07-07T07:57:05.895Z,22.569885
2018-07-07T07:57:26.659Z,22.569885
2018-07-07T07:57:45.049Z,22.569885
2018-07-07T07:58:06.989Z,22.549744
2018-07-07T07:59:02.717Z,22.579956
2018-07-07T07:59:22.209Z,22.569885
2018-07-07T07:59:55.076Z,22.579956
2018-07-07T08:00:19.167Z,22.569885
2018-07-07T08:00:36.494Z,22.549744
2018-07-07T08:00:54.895Z,22.549744
2018-07-07T08:01:30.927Z,22.579956
2018-07-07T08:01:48.889Z,22.549744
2018-07-07T08:02:08.855Z,22.569885
2018-07-07T08:02:28.509Z,22.569885
2018-07-07T08:02:46.193Z,22.569885
2018-07-07T08:03:07.947Z,22.579956
2018-07-07T08:03:44.919Z,22.579956
2018-07-07T08:04:01.820Z,22.600098
2018-07-07T08:04:18.556Z,22.579956
2018-07-07T08:04:36.215Z,22.600098
2018-07-07T08:04:59.152Z,22.579956
2018-07-07T08:05:18.632Z,22.579956
2018-07-07T08:05:36.792Z,22.579956
2018-07-07T08:05:56.641Z,22.600098
2018-07-07T08:06:31.495Z,22.600098
2018-07-07T08:06:52.179Z,22.579956
2018-07-07T08:07:10.002Z,22.579956
2018-07-07T08:07:28.379Z,22.569885
2018-07-07T08:07:56.445Z,22.579956
2018-07-07T08:08:17.787Z,22.579956
2018-07-07T08:08:36.926Z,22.569885
2018-07-07T08:08:53.805Z,22.579956
2018-07-07T08:09:14.028Z,22.569885
2018-07-07T08:09:42.683Z,22.569885
2018-07-07T08:10:25.851Z,22.549744
2018-07-07T08:10:46.579Z,22.549744
2018-07-07T08:11:17.022Z,22.569885
2018-07-07T08:12:46.828Z,22.549744
2018-07-07T08:13:04.219Z,22.579956
2018-07-07T08:13:21.103Z,22.579956
2018-07-07T08:13:37.809Z,22.600098
2018-07-07T08:13:54.620Z,22.600098
2018-07-07T08:14:11.689Z,22.600098
2018-07-07T08:14:28.986Z,22.579956
2018-07-07T08:15:15.363Z,22.600098
2018-07-07T08:15:32.338Z,22.610168
2018-07-07T08:15:49.196Z,22.600098
2018-07-07T08:16:06.534Z,22.610168
2018-07-07T08:16:25.484Z,22.610168
2018-07-07T08:17:20.400Z,22.610168
2018-07-07T08:17:37.545Z,22.600098
2018-07-07T08:17:54.393Z,22.610168
2018-07-07T08:18:17.976Z,22.610168
2018-07-07T08:18:47.005Z,22.610168
2018-07-07T08:19:05.740Z,22.610168
2018-07-07T08:19:31.672Z,22.600098
2018-07-07T08:19:49.261Z,22.600098
2018-07-07T08:20:15.452Z,22.600098
2018-07-07T08:20:53.820Z,22.610168
2018-07-07T08:21:20.846Z,22.620239
2018-07-07T08:21:46.336Z,22.620239
2018-07-07T08:22:04.231Z,22.610168
2018-07-07T08:22:21.337Z,22.610168
2018-07-07T08:22:38.379Z,22.620239
2018-07-07T08:22:57.625Z,22.640381
2018-07-07T08:23:15.064Z,22.620239
2018-07-07T08:23:32.427Z,22.620239
2018-07-07T08:23:49.327Z,22.640381
2018-07-07T08:24:06.295Z,22.620239
2018-07-07T08:24:23.105Z,22.670593
2018-07-07T08:24:52.632Z,22.670593
2018-07-07T08:25:48.818Z,22.680664
2018-07-07T08:26:20.958Z,22.700806
2018-07-07T08:26:50.340Z,22.700806
2018-07-07T08:28:35.243Z,22.670593
2018-07-07T08:28:52.247Z,22.670593
2018-07-07T08:29:09.500Z,22.650452
2018-07-07T08:29:29.665Z,22.650452
2018-07-07T08:29:53.007Z,22.670593
2018-07-07T08:30:31.896Z,22.650452
2018-07-07T08:30:50.075Z,22.670593
2018-07-07T08:31:58.889Z,22.640381
2018-07-07T08:32:36.356Z,22.640381
2018-07-07T08:32:53.238Z,22.640381
2018-07-07T08:33:18.674Z,22.650452
2018-07-07T08:34:04.215Z,22.670593
2018-07-07T08:34:44.492Z,22.670593
2018-07-07T08:35:07.175Z,22.700806
2018-07-07T08:35:44.725Z,22.720947
2018-07-07T08:36:01.711Z,22.720947
2018-07-07T08:36:18.523Z,22.700806
2018-07-07T08:36:44.589Z,22.720947
2018-07-07T08:37:17.921Z,22.731018
2018-07-07T08:37:48.642Z,22.720947
2018-07-07T08:38:29.579Z,22.731018
2018-07-07T08:38:46.410Z,22.731018
2018-07-07T08:39:14.586Z,22.731018
2018-07-07T08:39:47.990Z,22.731018
2018-07-07T08:40:06.006Z,22.75116
2018-07-07T08:40:24.893Z,22.731018
2018-07-07T08:40:42.091Z,22.731018
2018-07-07T08:40:58.849Z,22.731018
2018-07-07T08:41:15.632Z,22.75116
2018-07-07T08:41:43.012Z,22.771301
2018-07-07T08:42:18.939Z,22.75116
2018-07-07T08:42:36.788Z,22.76123
2018-07-07T08:42:53.715Z,22.75116
2018-07-07T08:43:10.893Z,22.76123
2018-07-07T08:43:29.380Z,22.771301
2018-07-07T08:43:46.898Z,22.771301
2018-07-07T08:44:16.183Z,22.791443
2018-07-07T08:44:50.268Z,22.801514
2018-07-07T08:46:57.258Z,22.771301
2018-07-07T08:48:02.126Z,22.75116
2018-07-07T08:48:20.061Z,22.731018
2018-07-07T08:48:43.233Z,22.75116
2018-07-07T08:49:16.571Z,22.731018
2018-07-07T08:49:33.268Z,22.75116
2018-07-07T08:49:49.991Z,22.771301
2018-07-07T08:50:07.021Z,22.75116
2018-07-07T08:50:24.063Z,22.76123
2018-07-07T08:50:41.212Z,22.75116
2018-07-07T08:50:59.039Z,22.76123
2018-07-07T08:51:21.925Z,22.76123
2018-07-07T08:51:46.489Z,22.76123
2018-07-07T08:52:05.120Z,22.791443
2018-07-07T08:52:21.990Z,22.791443
2018-07-07T08:52:40.011Z,22.76123
2018-07-07T08:52:57.482Z,22.791443
2018-07-07T08:53:14.683Z,22.791443
2018-07-07T08:53:39.897Z,22.791443
2018-07-07T08:54:47.581Z,22.791443
2018-07-07T08:55:42.300Z,22.851868
2018-07-07T08:55:59.170Z,22.831726
2018-07-07T08:56:15.972Z,22.831726
2018-07-07T08:56:32.727Z,22.831726
2018-07-07T08:56:49.633Z,22.831726
2018-07-07T08:57:12.897Z,22.831726
2018-07-07T08:58:20.086Z,22.88208
2018-07-07T08:59:00.867Z,22.851868
2018-07-07T08:59:17.964Z,22.851868
2018-07-07T08:59:42.491Z,22.861938
2018-07-07T09:00:05.107Z,22.831726
2018-07-07T09:00:45.424Z,22.902222
2018-07-07T09:01:02.265Z,22.902222
2018-07-07T09:01:19.026Z,22.912292
2018-07-07T09:01:35.841Z,22.912292
2018-07-07T09:01:52.509Z,22.912292
2018-07-07T09:02:09.533Z,22.942505
2018-07-07T09:02:28.633Z,22.922363
2018-07-07T09:02:47.595Z,22.942505
2018-07-07T09:03:12.059Z,22.922363
2018-07-07T09:03:28.887Z,22.952576
2018-07-07T09:04:44.825Z,22.952576
2018-07-07T09:05:58.794Z,22.88208
2018-07-07T09:06:16.605Z,22.912292
2018-07-07T09:06:37.946Z,22.88208
2018-07-07T09:06:54.811Z,22.88208
2018-07-07T09:07:20.656Z,22.861938
2018-07-07T09:07:49.020Z,22.861938
2018-07-07T09:08:06.054Z,22.851868
2018-07-07T09:08:23.742Z,22.851868
2018-07-07T09:08:41.249Z,22.861938
2018-07-07T09:08:59.737Z,22.88208
2018-07-07T09:09:16.422Z,22.88208
2018-07-07T09:10:53.253Z,22.851868
2018-07-07T12:43:33.170Z,28.370667
2018-07-07T12:44:31.260Z,28.733215
2018-07-07T12:44:48.623Z,28.854065
2018-07-07T12:45:05.641Z,28.984985
2018-07-07T12:45:34.337Z,29.146118
2018-07-07T12:46:08.153Z,29.41803
2018-07-07T12:46:26.160Z,29.508667
2018-07-07T12:46:43.063Z,29.579163
2018-07-07T12:47:13.274Z,29.679871
2018-07-07T12:47:58.568Z,29.92157
2018-07-07T12:48:16.535Z,30.022278
2018-07-07T12:48:46.902Z,30.042419
2018-07-07T12:49:04.791Z,30.133057
2018-07-07T12:49:27.610Z,30.263977
2018-07-07T12:50:32.990Z,30.354614
2018-07-07T12:51:13.566Z,30.566101
2018-07-07T12:51:30.733Z,30.616455
2018-07-07T12:51:47.670Z,30.666809
2018-07-07T12:52:04.437Z,30.697021
2018-07-07T12:52:26.161Z,30.717163
2018-07-07T12:53:01.207Z,30.858154
2018-07-07T12:53:18.210Z,30.908508
2018-07-07T12:53:39.993Z,30.968933
2018-07-07T12:54:30.871Z,31.089783
2018-07-07T12:54:47.941Z,31.140137
2018-07-07T12:55:04.814Z,31.190491
2018-07-07T12:55:21.759Z,31.210632
2018-07-07T12:55:38.887Z,31.210632
2018-07-07T12:55:55.693Z,31.230774
2018-07-07T12:56:13.122Z,31.210632
2018-07-07T12:56:29.934Z,31.210632
2018-07-07T12:56:46.883Z,31.210632
2018-07-07T12:57:03.553Z,31.250916
2018-07-07T12:57:20.349Z,31.31134
2018-07-07T12:57:37.388Z,31.391907
2018-07-07T12:57:54.048Z,31.462402
2018-07-07T12:58:10.968Z,31.502686
2018-07-07T12:58:27.864Z,31.583252
2018-07-07T12:58:44.800Z,31.663818
2018-07-07T12:59:01.914Z,31.754456
2018-07-07T12:59:19.950Z,31.835022
2018-07-07T13:00:16.944Z,31.986084
2018-07-07T13:00:34.002Z,32.036438
2018-07-07T13:00:53.102Z,32.05658
2018-07-07T13:01:12.215Z,32.05658
2018-07-07T13:01:37.578Z,32.006226
2018-07-07T13:01:54.887Z,31.925659
2018-07-07T13:02:11.794Z,31.955872
2018-07-07T13:02:28.671Z,31.986084
2018-07-07T13:02:45.405Z,31.996155
2018-07-07T13:03:03.935Z,32.026367
2018-07-07T13:03:20.929Z,32.036438
2018-07-07T13:03:37.822Z,32.006226
2018-07-07T13:04:02.508Z,31.996155
2018-07-07T13:04:43.574Z,31.996155
2018-07-07T13:05:03.356Z,32.106934
2018-07-07T13:06:05.211Z,32.43927
2018-07-07T13:06:22.154Z,32.550049
2018-07-07T13:06:38.894Z,32.600403
2018-07-07T13:06:56.100Z,32.660828
2018-07-07T13:07:12.371Z,32.741394
2018-07-07T13:07:29.372Z,32.82196
2018-07-07T13:07:47.541Z,32.872314
2018-07-07T13:08:04.288Z,32.962952
2018-07-07T13:08:22.023Z,32.94281
2018-07-07T13:08:39.527Z,32.882385
2018-07-07T13:08:56.369Z,32.842102
2018-07-07T13:09:13.638Z,32.721252
2018-07-07T13:09:34.749Z,32.650757
2018-07-07T13:09:53.655Z,32.670898
2018-07-07T13:10:13.298Z,32.721252
2018-07-07T13:10:31.292Z,32.791748
2018-07-07T13:10:49.026Z,32.781677
2018-07-07T13:11:06.086Z,32.751465
2018-07-07T13:11:23.058Z,32.781677
2018-07-07T13:11:40.733Z,32.781677
2018-07-07T13:12:08.256Z,32.81189
2018-07-07T13:12:26.729Z,32.82196
2018-07-07T13:12:44.077Z,32.882385
2018-07-07T13:13:01.339Z,32.94281
2018-07-07T13:13:18.440Z,33.043518
2018-07-07T13:13:35.497Z,33.154297
2018-07-07T13:13:56.402Z,33.214722
2018-07-07T13:14:34.614Z,33.406067
2018-07-07T13:14:52.170Z,33.486633
2018-07-07T13:15:09.955Z,33.587341
2018-07-07T13:18:58.938Z,35.148315
2018-07-07T13:19:15.802Z,35.108032
2018-07-07T13:22:36.797Z,35.410156
2018-07-07T13:22:56.485Z,35.339661
2018-07-07T13:23:14.424Z,35.228882
2018-07-07T13:23:32.709Z,35.148315
2018-07-07T13:23:49.684Z,35.067749
2018-07-07T13:24:06.525Z,34.936829
2018-07-07T13:24:23.645Z,34.886475
2018-07-07T13:24:41.067Z,34.836121
2018-07-07T13:24:58.008Z,34.815979
2018-07-07T13:25:14.911Z,34.805908
2018-07-07T13:25:31.935Z,34.836121
2018-07-07T13:25:48.654Z,34.775696
2018-07-07T13:26:07.105Z,34.695129
2018-07-07T13:26:30.091Z,34.725342
2018-07-07T13:26:50.642Z,34.805908
2018-07-07T13:27:07.969Z,34.846191
2018-07-07T13:27:25.092Z,34.916687
2018-07-07T13:27:41.771Z,34.967041
2018-07-07T13:28:39.906Z,35.259094
2018-07-07T13:31:08.877Z,35.440369
2018-07-07T13:31:26.718Z,35.400085
2018-07-07T13:31:43.570Z,35.379944
2018-07-07T13:32:02.489Z,35.339661
2018-07-07T13:32:58.388Z,35.621643
2018-07-07T13:33:15.511Z,35.772705
2018-07-07T13:33:32.696Z,35.974121
2018-07-07T13:33:58.976Z,36.155396
2018-07-07T13:36:10.187Z,37.051697
2018-07-07T13:36:26.982Z,37.202759
2018-07-07T13:36:43.735Z,37.2229
2018-07-07T13:37:04.714Z,37.21283
2018-07-07T13:37:23.523Z,37.152405
2018-07-07T13:37:40.834Z,37.102051
2018-07-07T13:37:57.876Z,36.930847
2018-07-07T13:38:14.649Z,36.991272
2018-07-07T13:38:31.515Z,37.071838
2018-07-07T13:38:53.118Z,37.102051
2018-07-07T13:39:21.286Z,36.880493
2018-07-07T13:39:39.857Z,36.880493
2018-07-07T13:39:57.199Z,36.830139
2018-07-07T13:40:14.481Z,36.799927
2018-07-07T13:41:04.388Z,36.58844
2018-07-07T13:41:22.365Z,36.558228
2018-07-07T13:41:41.051Z,36.507874
2018-07-07T13:42:04.208Z,36.437378
2018-07-07T13:42:24.497Z,36.437378
2018-07-07T13:42:41.904Z,36.427307
2018-07-07T13:43:00.495Z,36.437378
2018-07-07T13:43:17.332Z,36.538086
2018-07-07T13:43:34.348Z,36.618652
2018-07-07T13:43:51.765Z,36.689148
2018-07-07T13:46:27.751Z,36.70929
2018-07-07T13:46:44.782Z,36.598511
2018-07-07T13:47:01.483Z,36.46759
2018-07-07T13:47:18.696Z,36.45752
2018-07-07T13:47:39.601Z,36.558228
2018-07-07T13:48:00.402Z,36.648865
2018-07-07T13:48:22.682Z,36.689148
2018-07-07T13:49:19.169Z,36.618652
2018-07-07T13:50:29.148Z,36.507874
2018-07-07T13:50:46.499Z,36.45752
2018-07-07T13:51:07.388Z,36.427307
2018-07-07T13:51:33.702Z,36.437378
2018-07-07T13:51:52.148Z,36.437378
2018-07-07T13:52:17.916Z,36.346741
2018-07-07T13:52:35.866Z,36.387024
2018-07-07T13:52:57.468Z,36.387024
2018-07-07T13:53:16.579Z,36.346741
2018-07-07T13:53:33.375Z,36.225891
2018-07-07T13:53:53.258Z,36.376953
2018-07-07T13:54:18.357Z,36.759644
2018-07-07T13:54:48.658Z,36.779785
2018-07-07T13:55:05.670Z,36.779785
2018-07-07T13:55:25.346Z,36.900635
2018-07-07T13:56:01.878Z,37.021484
2018-07-07T13:56:33.354Z,37.373962
2018-07-07T13:57:01.987Z,37.776794
2018-07-07T13:57:22.395Z,37.937927
2018-07-07T13:57:39.121Z,37.97821
2018-07-07T13:57:57.648Z,37.84729
2018-07-07T13:58:20.076Z,37.585449
2018-07-07T13:59:03.423Z,37.414246
2018-07-07T13:59:24.149Z,37.545166
2018-07-07T14:00:02.350Z,37.404175
2018-07-07T14:00:22.588Z,37.363892
2018-07-07T14:00:39.347Z,37.253113
2018-07-07T14:01:03.395Z,37.132263
2018-07-07T14:02:03.757Z,36.679077
2018-07-07T14:02:21.068Z,36.497803
2018-07-07T14:02:37.781Z,36.366882
2018-07-07T14:02:54.764Z,36.427307
2018-07-07T14:03:12.216Z,36.346741
2018-07-07T14:03:29.140Z,36.316528
2018-07-07T14:03:46.161Z,36.376953
2018-07-07T14:04:03.142Z,36.366882
2018-07-07T14:04:20.608Z,36.437378
2018-07-07T14:04:37.614Z,36.70929
2018-07-07T14:04:54.791Z,36.84021
2018-07-07T14:05:14.689Z,36.799927
2018-07-07T14:05:33.632Z,36.749573
2018-07-07T14:06:01.174Z,36.84021
2018-07-07T14:06:28.663Z,36.950989
2018-07-07T14:06:46.785Z,36.880493
2018-07-07T14:07:07.202Z,36.880493
2018-07-07T14:07:31.148Z,36.84021
2018-07-07T14:07:49.977Z,36.84021
2018-07-07T14:08:07.286Z,36.759644
2018-07-07T14:08:24.164Z,36.779785
2018-07-07T14:08:41.891Z,36.799927
2018-07-07T14:08:58.776Z,36.779785
2018-07-07T14:09:16.364Z,36.779785
2018-07-07T14:09:45.976Z,36.648865
2018-07-07T14:10:08.709Z,36.528015
2018-07-07T14:10:35.510Z,36.306458
2018-07-07T14:10:53.136Z,36.155396
2018-07-07T14:11:10.603Z,36.094971
2018-07-07T14:11:29.152Z,36.014404
2018-07-07T14:11:48.739Z,35.943909
2018-07-07T14:12:07.617Z,35.96405
2018-07-07T14:12:24.865Z,35.943909
2018-07-07T14:12:41.534Z,35.893555
2018-07-07T14:12:58.955Z,35.893555
2018-07-07T14:13:16.117Z,35.943909
2018-07-07T14:13:33.449Z,35.843201
2018-07-07T14:13:51.912Z,35.752563
2018-07-07T14:14:09.164Z,35.682068
2018-07-07T14:14:26.261Z,35.722351
2018-07-07T14:14:43.924Z,35.742493
2018-07-07T14:15:16.805Z,35.591431
2018-07-07T14:15:34.201Z,35.480652
2018-07-07T14:15:51.977Z,35.440369
2018-07-07T14:16:09.175Z,35.470581
2018-07-07T14:16:26.526Z,35.440369
2018-07-07T14:16:45.190Z,35.410156
2018-07-07T14:17:01.810Z,35.410156
2018-07-07T14:17:47.468Z,35.430298
2018-07-07T14:18:33.023Z,35.520935
2018-07-07T14:19:03.288Z,35.71228
2018-07-07T14:19:57.473Z,35.823059
2018-07-07T14:20:14.711Z,35.782776
2018-07-07T14:20:33.980Z,35.782776
2018-07-07T14:20:58.450Z,35.772705
2018-07-07T14:21:15.757Z,35.752563
2018-07-07T14:21:38.742Z,35.752563
2018-07-07T14:22:07.799Z,35.812988
2018-07-07T14:22:25.720Z,35.853271
2018-07-07T14:22:48.437Z,35.933838
2018-07-07T14:23:23.110Z,36.004333
2018-07-07T14:24:09.305Z,35.943909
2018-07-07T14:25:48.727Z,35.71228
2018-07-07T15:15:06.629Z,35.359802
2018-07-07T15:15:25.575Z,35.359802
2018-07-07T15:15:43.355Z,35.430298
2018-07-07T15:16:01.082Z,35.531006
2018-07-07T15:16:18.464Z,35.561218
2018-07-07T15:16:35.167Z,35.601501
2018-07-07T15:16:51.890Z,35.702209
2018-07-07T15:17:08.549Z,35.71228
2018-07-07T15:17:25.948Z,35.702209
2018-07-07T15:17:42.974Z,35.682068
2018-07-07T15:18:00.098Z,35.661926
2018-07-07T15:18:18.134Z,35.661926
2018-07-07T15:19:01.077Z,35.601501
2018-07-07T15:19:19.716Z,35.531006
2018-07-07T15:19:37.013Z,35.470581
2018-07-07T15:19:53.778Z,35.400085
2018-07-07T15:20:10.941Z,35.339661
2018-07-07T15:20:28.251Z,35.218811
2018-07-07T15:20:47.360Z,35.097961
2018-07-07T15:21:04.349Z,35.027466
2018-07-07T15:21:21.294Z,35.017395
2018-07-07T15:21:38.769Z,34.987183
2018-07-07T15:21:56.027Z,34.987183
2018-07-07T15:22:12.914Z,34.987183
2018-07-07T15:22:29.832Z,34.95697
2018-07-07T15:22:46.782Z,34.967041
2018-07-07T15:23:03.667Z,34.997253
2018-07-07T15:23:21.097Z,35.027466
2018-07-07T15:23:37.751Z,35.067749
2018-07-07T15:23:54.683Z,35.108032
2018-07-07T15:24:11.412Z,35.178528
2018-07-07T15:24:28.399Z,35.158386
2018-07-07T15:24:45.901Z,35.20874